Time;durP1;ratioP1;P1;durP2;ratioP2;P2;SDS_P1;SDS_P2;PMS_P1;PMS_P2;Temp;Humidity;BMP_temperature;BMP_pressure;BME280_temperature;BME280_humidity;BME280_pressure;Samples;Min_cycle;Max_cycle;Signal;HPM_P1;HPM_P2
2023/03/04 00:00:59;;;;;;;13.13;8.15;;;;;;;;;;5026912;28;20389;-73
2023/03/04 00:03:25;;;;;;;16.88;9.40;;;;;;;;;;4983440;28;20025;-71
2023/03/04 00:05:50;;;;;;;16.05;8.70;;;;;;;;;;5012587;28;20088;-71
2023/03/04 00:08:16;;;;;;;16.80;8.27;;;;;;;;;;5013728;28;20025;-72
2023/03/04 00:10:42;;;;;;;15.65;8.82;;;;;;;;;;5013946;28;20037;-72
2023/03/04 00:13:08;;;;;;;16.25;8.82;;;;;;;;;;5011684;28;20026;-72
2023/03/04 00:15:33;;;;;;;14.68;8.43;;;;;;;;;;5012988;28;20152;-72
2023/03/04 00:17:59;;;;;;;17.27;8.50;;;;;;;;;;5012537;28;20064;-72
2023/03/04 00:20:25;;;;;;;15.73;8.77;;;;;;;;;;5017137;28;20411;-72
2023/03/04 00:22:50;;;;;;;13.75;7.22;;;;;;;;;;5027830;28;20099;-71
2023/03/04 00:25:16;;;;;;;16.50;7.80;;;;;;;;;;5019562;28;20479;-71
2023/03/04 00:27:42;;;;;;;12.00;7.55;;;;;;;;;;5031920;28;20029;-72
2023/03/04 00:30:08;;;;;;;16.75;8.25;;;;;;;;;;5014560;28;20407;-72
2023/03/04 00:32:35;;;;;;;14.25;8.38;;;;;;;;;;4989674;28;20108;-72
2023/03/04 00:35:02;;;;;;;15.20;8.38;;;;;;;;;;5013036;28;20033;-72
2023/03/04 00:37:28;;;;;;;14.77;7.72;;;;;;;;;;4994534;28;20030;-72
2023/03/04 00:39:54;;;;;;;12.23;7.35;;;;;;;;;;5015136;28;20038;-72
2023/03/04 00:42:20;;;;;;;21.63;8.73;;;;;;;;;;4998294;28;20029;-72
2023/03/04 00:44:45;;;;;;;13.57;7.78;;;;;;;;;;5013872;28;20038;-72
2023/03/04 00:47:11;;;;;;;17.08;8.10;;;;;;;;;;5047283;28;20029;-71
2023/03/04 00:49:37;;;;;;;17.50;8.18;;;;;;;;;;5030651;28;20103;-71
2023/03/04 00:52:03;;;;;;;15.30;8.27;;;;;;;;;;4994805;28;20026;-72
2023/03/04 00:54:29;;;;;;;15.18;8.20;;;;;;;;;;4994004;28;20046;-72
2023/03/04 00:56:54;;;;;;;14.65;7.60;;;;;;;;;;5046004;28;20030;-71
2023/03/04 00:59:20;;;;;;;14.45;7.90;;;;;;;;;;5013506;28;20033;-72
2023/03/04 01:01:46;;;;;;;15.15;7.93;;;;;;;;;;5014215;28;20033;-72
2023/03/04 01:04:12;;;;;;;16.98;8.40;;;;;;;;;;5012965;28;20057;-72
2023/03/04 01:06:38;;;;;;;17.35;10.00;;;;;;;;;;5013217;28;20059;-72
2023/03/04 01:09:04;;;;;;;17.08;9.27;;;;;;;;;;5013912;28;20057;-72
2023/03/04 01:11:30;;;;;;;15.05;9.45;;;;;;;;;;5031637;28;20472;-71
2023/03/04 01:13:56;;;;;;;20.45;11.02;;;;;;;;;;5013601;28;20033;-71
2023/03/04 01:16:22;;;;;;;21.38;10.88;;;;;;;;;;4995896;28;20025;-71
2023/03/04 01:18:47;;;;;;;19.20;11.68;;;;;;;;;;5031092;28;20060;-71
2023/03/04 01:21:14;;;;;;;20.50;11.57;;;;;;;;;;5018824;28;20033;-71
2023/03/04 01:23:40;;;;;;;19.92;10.05;;;;;;;;;;5011591;28;20034;-72
2023/03/04 01:26:07;;;;;;;19.58;9.82;;;;;;;;;;4993581;28;20044;-72
2023/03/04 01:28:34;;;;;;;22.58;10.75;;;;;;;;;;5011157;28;20084;-72
2023/03/04 01:31:01;;;;;;;16.00;10.25;;;;;;;;;;5007987;28;20072;-72
2023/03/04 01:33:28;;;;;;;16.05;10.27;;;;;;;;;;4958308;28;20057;-72
2023/03/04 01:35:53;;;;;;;19.30;10.50;;;;;;;;;;5009184;28;20022;-71
2023/03/04 01:38:19;;;;;;;18.55;10.73;;;;;;;;;;5002726;28;20458;-71
2023/03/04 01:40:45;;;;;;;16.50;10.57;;;;;;;;;;4989163;28;20037;-71
2023/03/04 01:43:21;;;;;;;19.40;10.82;;;;;;;;;;5004598;28;20125;-71
2023/03/04 01:45:51;;;;;;;18.00;11.23;;;;;;;;;;4986540;28;20042;-71
2023/03/04 01:48:21;;;;;;;18.90;10.75;;;;;;;;;;5005214;28;20045;-72
2023/03/04 01:50:48;;;;;;;21.02;11.82;;;;;;;;;;4987951;28;20522;-71
2023/03/04 01:53:19;;;;;;;23.77;14.27;;;;;;;;;;4989582;28;20037;-71
2023/03/04 01:55:45;;;;;;;15.60;11.25;;;;;;;;;;4987824;28;20049;-72
2023/03/04 01:58:11;;;;;;;15.23;10.68;;;;;;;;;;5020839;28;20034;-71
2023/03/04 02:00:39;;;;;;;18.33;11.18;;;;;;;;;;4987951;28;20034;-71
2023/03/04 02:03:11;;;;;;;17.73;11.35;;;;;;;;;;5006659;28;20033;-71
2023/03/04 02:05:41;;;;;;;18.13;10.85;;;;;;;;;;4986897;28;20547;-71
2023/03/04 02:08:08;;;;;;;23.10;13.35;;;;;;;;;;5036751;28;20026;-71
2023/03/04 02:10:35;;;;;;;21.52;13.40;;;;;;;;;;5009397;28;20495;-71
2023/03/04 02:13:03;;;;;;;23.98;15.10;;;;;;;;;;5011105;28;20034;-71
2023/03/04 02:15:29;;;;;;;29.48;14.55;;;;;;;;;;5027182;28;20030;-71
2023/03/04 02:17:55;;;;;;;34.63;19.17;;;;;;;;;;5010967;28;20029;-71
2023/03/04 02:20:33;;;;;;;28.23;16.90;;;;;;;;;;5012250;28;20026;-71
2023/03/04 02:23:04;;;;;;;26.85;16.55;;;;;;;;;;5027417;28;20034;-71
2023/03/04 02:25:38;;;;;;;24.40;16.27;;;;;;;;;;5012112;28;20069;-71
2023/03/04 02:28:04;;;;;;;23.65;14.90;;;;;;;;;;5048761;28;20566;-71
2023/03/04 02:30:30;;;;;;;25.45;14.10;;;;;;;;;;5017649;28;20068;-71
2023/03/04 02:32:56;;;;;;;26.55;14.50;;;;;;;;;;5050396;28;20112;-71
2023/03/04 02:35:22;;;;;;;24.73;15.15;;;;;;;;;;5017262;28;20053;-71
2023/03/04 02:37:47;;;;;;;25.58;14.70;;;;;;;;;;5050243;28;20034;-71
2023/03/04 02:40:20;;;;;;;23.98;13.75;;;;;;;;;;5018595;28;20026;-71
2023/03/04 02:42:45;;;;;;;25.05;14.13;;;;;;;;;;5050414;28;20041;-71
2023/03/04 02:45:43;;;;;;;22.15;13.75;;;;;;;;;;5017144;28;20042;-72
2023/03/04 02:48:10;;;;;;;23.75;14.02;;;;;;;;;;5017284;28;20061;-72
2023/03/04 02:50:44;;;;;;;22.20;14.93;;;;;;;;;;5016216;28;20018;-71
2023/03/04 02:53:10;;;;;;;21.65;14.20;;;;;;;;;;5013106;28;20104;-71
2023/03/04 02:55:35;;;;;;;27.70;15.30;;;;;;;;;;4992811;28;20443;-71
2023/03/04 02:58:02;;;;;;;22.23;14.45;;;;;;;;;;5026776;28;20566;-71
2023/03/04 03:00:28;;;;;;;29.13;15.45;;;;;;;;;;4994408;28;20037;-71
2023/03/04 03:02:56;;;;;;;29.40;16.10;;;;;;;;;;4995117;28;20038;-73
2023/03/04 03:05:26;;;;;;;26.02;15.65;;;;;;;;;;5012614;28;20088;-71
2023/03/04 03:07:53;;;;;;;26.48;16.85;;;;;;;;;;5027621;28;20041;-71
2023/03/04 03:10:20;;;;;;;20.10;13.90;;;;;;;;;;5007661;28;20026;-72
2023/03/04 03:12:46;;;;;;;21.77;14.15;;;;;;;;;;4992947;28;20105;-72
2023/03/04 03:15:12;;;;;;;21.70;13.48;;;;;;;;;;4994485;28;20409;-72
2023/03/04 03:17:38;;;;;;;21.45;14.45;;;;;;;;;;4997679;28;20042;-71
2023/03/04 03:20:04;;;;;;;20.70;12.95;;;;;;;;;;5005473;28;20068;-73
2023/03/04 03:22:30;;;;;;;26.00;16.63;;;;;;;;;;5037761;28;20033;-72
2023/03/04 03:24:56;;;;;;;23.92;14.32;;;;;;;;;;5045244;28;20030;-73
2023/03/04 03:27:22;;;;;;;24.75;15.02;;;;;;;;;;5016650;28;20197;-72
2023/03/04 03:29:49;;;;;;;20.55;13.00;;;;;;;;;;4995140;28;20030;-73
2023/03/04 03:32:15;;;;;;;22.23;13.05;;;;;;;;;;4997733;28;20034;-72
2023/03/04 03:34:41;;;;;;;19.60;13.27;;;;;;;;;;4995180;28;20078;-72
2023/03/04 03:37:08;;;;;;;35.55;19.20;;;;;;;;;;4979639;28;20480;-72
2023/03/04 03:39:34;;;;;;;34.85;19.85;;;;;;;;;;4998892;28;20517;-72
2023/03/04 03:41:59;;;;;;;30.67;16.50;;;;;;;;;;5033599;28;20037;-71
2023/03/04 03:44:25;;;;;;;26.02;15.02;;;;;;;;;;5032918;28;20483;-71
2023/03/04 03:46:51;;;;;;;22.98;14.98;;;;;;;;;;5032843;28;20045;-71
2023/03/04 03:49:17;;;;;;;23.17;15.02;;;;;;;;;;5015130;28;20030;-71
2023/03/04 03:51:43;;;;;;;24.17;15.82;;;;;;;;;;5033212;28;20091;-71
2023/03/04 03:54:09;;;;;;;21.38;14.23;;;;;;;;;;5032320;28;20021;-72
2023/03/04 03:56:34;;;;;;;24.45;14.80;;;;;;;;;;5030704;28;20487;-72
2023/03/04 03:59:01;;;;;;;25.17;14.95;;;;;;;;;;5032971;28;20483;-72
2023/03/04 04:01:26;;;;;;;24.42;15.40;;;;;;;;;;5032667;28;20037;-72
2023/03/04 04:03:52;;;;;;;22.42;15.32;;;;;;;;;;5015899;28;20021;-72
2023/03/04 04:06:18;;;;;;;26.02;15.52;;;;;;;;;;5014541;28;20057;-73
2023/03/04 04:08:44;;;;;;;26.58;14.70;;;;;;;;;;5027764;28;20065;-73
2023/03/04 04:11:10;;;;;;;18.83;12.73;;;;;;;;;;5013334;28;20373;-73
2023/03/04 04:13:36;;;;;;;22.30;13.98;;;;;;;;;;5006686;28;20116;-72
2023/03/04 04:16:02;;;;;;;19.95;12.93;;;;;;;;;;4992119;28;20112;-72
2023/03/04 04:18:28;;;;;;;23.38;13.07;;;;;;;;;;5008901;28;20030;-73
2023/03/04 04:20:54;;;;;;;19.10;13.40;;;;;;;;;;5012201;28;20466;-72
2023/03/04 04:23:19;;;;;;;19.52;12.43;;;;;;;;;;5012511;28;20103;-72
2023/03/04 04:25:45;;;;;;;18.45;12.50;;;;;;;;;;4996628;28;20030;-72
2023/03/04 04:28:11;;;;;;;23.65;13.77;;;;;;;;;;5013939;28;20454;-72
2023/03/04 04:30:37;;;;;;;24.40;12.63;;;;;;;;;;4996258;28;20046;-72
2023/03/04 04:33:03;;;;;;;17.00;11.50;;;;;;;;;;5013906;28;20395;-72
2023/03/04 04:35:34;;;;;;;15.00;11.55;;;;;;;;;;5013742;28;20480;-72
2023/03/04 04:38:00;;;;;;;21.02;11.88;;;;;;;;;;4996286;28;20042;-73
2023/03/04 04:40:26;;;;;;;22.25;11.63;;;;;;;;;;4996255;28;20029;-71
2023/03/04 04:42:51;;;;;;;16.67;11.05;;;;;;;;;;4996284;28;20037;-72
2023/03/04 04:45:17;;;;;;;17.63;11.13;;;;;;;;;;4995907;28;20483;-72
2023/03/04 04:47:43;;;;;;;20.20;12.15;;;;;;;;;;4996064;28;20033;-72
2023/03/04 04:50:09;;;;;;;17.70;12.07;;;;;;;;;;5012651;28;20032;-72
2023/03/04 04:52:35;;;;;;;19.48;11.05;;;;;;;;;;4995931;28;20037;-73
2023/03/04 04:55:01;;;;;;;17.88;11.30;;;;;;;;;;4995986;28;20033;-72
2023/03/04 04:57:27;;;;;;;17.45;11.20;;;;;;;;;;5013395;28;20502;-71
2023/03/04 04:59:53;;;;;;;19.48;11.55;;;;;;;;;;5013379;28;20048;-71
2023/03/04 05:02:19;;;;;;;19.58;12.20;;;;;;;;;;5013351;28;20041;-71
2023/03/04 05:04:44;;;;;;;23.58;12.80;;;;;;;;;;5013336;28;20037;-72
2023/03/04 05:07:10;;;;;;;19.33;12.02;;;;;;;;;;4995194;28;20042;-71
2023/03/04 05:09:36;;;;;;;20.67;11.98;;;;;;;;;;5004975;28;20395;-71
2023/03/04 05:12:02;;;;;;;20.77;13.02;;;;;;;;;;4995512;28;20088;-71
2023/03/04 05:14:27;;;;;;;22.85;13.40;;;;;;;;;;5012725;28;20037;-72
2023/03/04 05:16:53;;;;;;;18.40;12.70;;;;;;;;;;5012687;28;20044;-72
2023/03/04 05:19:20;;;;;;;20.90;13.98;;;;;;;;;;4995103;28;20153;-72
2023/03/04 05:21:45;;;;;;;20.33;12.77;;;;;;;;;;5012479;28;20046;-72
2023/03/04 05:24:11;;;;;;;17.88;11.10;;;;;;;;;;4995089;28;20026;-72
2023/03/04 05:26:37;;;;;;;17.65;11.13;;;;;;;;;;4994959;28;20048;-72
2023/03/04 05:29:03;;;;;;;18.35;10.77;;;;;;;;;;5012535;28;20108;-72
2023/03/04 05:31:29;;;;;;;16.45;9.88;;;;;;;;;;5012650;28;20112;-73
2023/03/04 05:33:55;;;;;;;16.70;10.25;;;;;;;;;;5012720;28;20452;-73
2023/03/04 05:36:21;;;;;;;19.10;10.23;;;;;;;;;;5012627;28;20065;-72
2023/03/04 05:38:47;;;;;;;20.15;9.70;;;;;;;;;;4995097;28;20064;-72
2023/03/04 05:41:13;;;;;;;16.42;9.15;;;;;;;;;;5012470;28;20396;-71
2023/03/04 05:43:41;;;;;;;14.88;8.93;;;;;;;;;;5012407;28;20072;-72
2023/03/04 05:46:13;;;;;;;14.10;8.63;;;;;;;;;;5009910;28;20072;-71
2023/03/04 05:48:38;;;;;;;14.85;10.25;;;;;;;;;;5011434;28;20034;-72
2023/03/04 05:51:04;;;;;;;23.52;13.23;;;;;;;;;;5009789;28;20033;-71
2023/03/04 05:53:30;;;;;;;17.50;10.00;;;;;;;;;;5012372;28;20044;-71
2023/03/04 05:55:58;;;;;;;17.33;11.02;;;;;;;;;;5028010;28;20052;-75
2023/03/04 05:58:23;;;;;;;18.38;11.32;;;;;;;;;;5011971;28;20116;-73
2023/03/04 06:00:49;;;;;;;17.33;10.80;;;;;;;;;;5006780;28;20444;-75
2023/03/04 06:03:17;;;;;;;20.63;10.68;;;;;;;;;;4977660;28;20041;-72
2023/03/04 06:05:43;;;;;;;16.60;9.30;;;;;;;;;;5004348;28;20049;-72
2023/03/04 06:08:10;;;;;;;17.65;10.70;;;;;;;;;;5012045;28;20124;-72
2023/03/04 06:10:37;;;;;;;22.77;12.60;;;;;;;;;;5012072;28;20033;-72
2023/03/04 06:13:03;;;;;;;20.17;12.20;;;;;;;;;;5011212;28;20042;-72
2023/03/04 06:15:29;;;;;;;21.00;13.57;;;;;;;;;;5003218;28;20026;-72
2023/03/04 06:17:55;;;;;;;17.58;12.75;;;;;;;;;;4999554;28;20169;-72
2023/03/04 06:20:21;;;;;;;18.35;11.95;;;;;;;;;;5011548;28;20506;-73
2023/03/04 06:22:46;;;;;;;20.95;12.80;;;;;;;;;;5006302;28;20034;-72
2023/03/04 06:25:12;;;;;;;20.42;12.85;;;;;;;;;;5006159;28;20026;-74
2023/03/04 06:27:38;;;;;;;25.25;12.15;;;;;;;;;;4993754;28;20069;-73
2023/03/04 06:30:04;;;;;;;18.85;10.43;;;;;;;;;;5011498;28;20476;-73
2023/03/04 06:32:31;;;;;;;16.73;10.02;;;;;;;;;;5011091;28;20121;-74
2023/03/04 06:34:57;;;;;;;18.77;10.68;;;;;;;;;;5011196;28;20022;-72
2023/03/04 06:37:23;;;;;;;17.17;10.85;;;;;;;;;;4994645;28;20088;-73
2023/03/04 06:39:48;;;;;;;17.75;11.07;;;;;;;;;;5012976;28;20124;-73
2023/03/04 06:42:14;;;;;;;16.80;11.07;;;;;;;;;;4993931;28;20038;-72
2023/03/04 06:44:40;;;;;;;17.67;11.02;;;;;;;;;;5009455;28;20033;-72
2023/03/04 06:47:06;;;;;;;17.88;11.75;;;;;;;;;;5012225;28;20053;-73
2023/03/04 06:49:31;;;;;;;18.92;12.65;;;;;;;;;;5011386;28;20361;-72
2023/03/04 06:51:57;;;;;;;23.42;14.45;;;;;;;;;;4994050;28;20034;-72
2023/03/04 06:54:23;;;;;;;23.58;14.05;;;;;;;;;;5010204;28;20376;-72
2023/03/04 06:56:49;;;;;;;17.63;13.63;;;;;;;;;;5010419;28;20069;-74
2023/03/04 06:59:15;;;;;;;18.33;12.45;;;;;;;;;;5009962;28;20038;-72
2023/03/04 07:01:40;;;;;;;20.55;14.50;;;;;;;;;;5010843;28;20042;-72
2023/03/04 07:04:06;;;;;;;19.40;13.18;;;;;;;;;;4994141;28;20026;-72
2023/03/04 07:06:32;;;;;;;20.77;13.25;;;;;;;;;;4993505;28;20418;-72
2023/03/04 07:08:58;;;;;;;20.73;13.50;;;;;;;;;;5011142;28;20056;-73
2023/03/04 07:11:24;;;;;;;21.15;13.13;;;;;;;;;;5011312;28;20046;-73
2023/03/04 07:13:50;;;;;;;21.35;11.68;;;;;;;;;;5027849;28;20061;-72
2023/03/04 07:16:20;;;;;;;17.52;10.63;;;;;;;;;;5032108;28;20036;-72
2023/03/04 07:18:49;;;;;;;20.08;12.20;;;;;;;;;;5021146;28;20518;-73
2023/03/04 07:21:16;;;;;;;19.85;11.48;;;;;;;;;;5018238;28;20030;-73
2023/03/04 07:23:42;;;;;;;19.73;11.90;;;;;;;;;;5015083;28;20052;-73
2023/03/04 07:26:08;;;;;;;19.00;10.55;;;;;;;;;;5014898;28;20129;-73
2023/03/04 07:28:34;;;;;;;16.08;10.25;;;;;;;;;;5014805;28;20396;-73
2023/03/04 07:31:23;;;;;;;17.45;11.98;;;;;;;;;;5014306;28;20026;-74
2023/03/04 07:33:50;;;;;;;17.27;10.13;;;;;;;;;;4994486;28;20026;-75
2023/03/04 07:36:18;;;;;;;18.75;10.63;;;;;;;;;;5037648;28;20482;-74
2023/03/04 07:38:45;;;;;;;15.82;9.60;;;;;;;;;;5016714;28;20136;-73
2023/03/04 07:41:11;;;;;;;18.23;9.40;;;;;;;;;;5034670;28;20387;-72
2023/03/04 07:43:37;;;;;;;19.08;9.23;;;;;;;;;;5023921;28;20040;-73
2023/03/04 07:46:03;;;;;;;13.95;7.88;;;;;;;;;;5022481;28;20022;-74
2023/03/04 07:48:29;;;;;;;14.63;9.95;;;;;;;;;;5013875;28;20034;-74
2023/03/04 07:51:10;;;;;;;14.25;7.93;;;;;;;;;;5014577;28;20022;-73
2023/03/04 07:53:38;;;;;;;17.55;8.30;;;;;;;;;;5029655;28;20483;-73
2023/03/04 07:56:05;;;;;;;10.52;6.90;;;;;;;;;;5014101;28;20076;-72
2023/03/04 07:58:31;;;;;;;14.85;6.05;;;;;;;;;;4996397;28;20553;-73
2023/03/04 08:00:57;;;;;;;12.10;5.50;;;;;;;;;;5014225;28;20025;-73
2023/03/04 08:03:24;;;;;;;26.15;8.40;;;;;;;;;;5014091;28;20058;-74
2023/03/04 08:05:51;;;;;;;20.45;7.03;;;;;;;;;;5015386;28;20030;-73
2023/03/04 08:08:17;;;;;;;59.17;10.82;;;;;;;;;;4998337;28;20034;-73
2023/03/04 08:10:43;;;;;;;26.02;8.38;;;;;;;;;;5017181;28;20026;-74
2023/03/04 08:13:09;;;;;;;45.95;10.55;;;;;;;;;;5016939;28;20029;-72
2023/03/04 08:15:40;;;;;;;21.70;7.80;;;;;;;;;;4998001;28;20045;-73
2023/03/04 08:18:06;;;;;;;16.73;7.47;;;;;;;;;;5013084;28;20034;-74
2023/03/04 08:20:31;;;;;;;18.67;6.95;;;;;;;;;;4996082;28;20044;-75
2023/03/04 08:22:57;;;;;;;32.40;8.40;;;;;;;;;;4988838;28;20038;-75
2023/03/04 08:25:23;;;;;;;22.30;7.97;;;;;;;;;;5008247;28;20092;-73
2023/03/04 08:27:48;;;;;;;17.42;6.90;;;;;;;;;;5025362;28;20175;-75
2023/03/04 08:30:14;;;;;;;20.02;7.72;;;;;;;;;;5012681;28;20428;-76
2023/03/04 08:32:40;;;;;;;19.80;8.25;;;;;;;;;;5032232;28;20037;-74
2023/03/04 08:35:06;;;;;;;20.90;9.00;;;;;;;;;;5045633;28;20022;-72
2023/03/04 08:37:31;;;;;;;22.55;8.15;;;;;;;;;;5019923;28;20459;-72
2023/03/04 08:39:57;;;;;;;20.95;7.93;;;;;;;;;;5012928;28;20034;-73
2023/03/04 08:42:23;;;;;;;19.00;7.75;;;;;;;;;;4995067;28;20045;-75
2023/03/04 08:44:49;;;;;;;30.77;9.48;;;;;;;;;;5012390;28;20033;-75
2023/03/04 08:47:15;;;;;;;11.55;6.25;;;;;;;;;;4995091;28;20113;-73
2023/03/04 08:49:41;;;;;;;16.85;7.00;;;;;;;;;;5010904;28;20096;-74
2023/03/04 08:52:06;;;;;;;14.07;6.38;;;;;;;;;;5012395;28;20117;-73
2023/03/04 08:54:32;;;;;;;13.68;6.30;;;;;;;;;;5012570;28;20018;-74
2023/03/04 08:56:58;;;;;;;12.70;6.43;;;;;;;;;;5012832;28;20038;-73
2023/03/04 08:59:24;;;;;;;17.88;6.57;;;;;;;;;;5030893;28;20021;-74
2023/03/04 09:01:49;;;;;;;8.40;5.35;;;;;;;;;;5033307;28;20034;-75
2023/03/04 09:04:15;;;;;;;14.93;6.82;;;;;;;;;;5020401;28;20024;-75
2023/03/04 09:06:41;;;;;;;16.75;6.78;;;;;;;;;;5011954;28;20069;-75
2023/03/04 09:09:07;;;;;;;15.45;5.75;;;;;;;;;;5012883;28;20429;-75
2023/03/04 09:11:32;;;;;;;9.63;5.65;;;;;;;;;;4994933;28;20037;-75
2023/03/04 09:13:58;;;;;;;11.68;5.47;;;;;;;;;;5011258;28;20450;-74
2023/03/04 09:16:24;;;;;;;26.88;7.95;;;;;;;;;;4994770;28;20044;-73
2023/03/04 09:18:49;;;;;;;10.52;5.30;;;;;;;;;;4992900;28;20025;-73
2023/03/04 09:21:15;;;;;;;21.67;7.07;;;;;;;;;;5007931;28;20432;-73
2023/03/04 09:23:41;;;;;;;10.98;5.47;;;;;;;;;;5012311;28;20152;-73
2023/03/04 09:26:14;;;;;;;13.20;6.45;;;;;;;;;;5017715;28;20026;-73
2023/03/04 09:28:40;;;;;;;28.17;6.78;;;;;;;;;;5047246;28;20033;-72
2023/03/04 09:31:11;;;;;;;18.52;6.70;;;;;;;;;;5014058;28;20036;-72
2023/03/04 09:33:37;;;;;;;26.67;6.35;;;;;;;;;;5032291;28;20406;-73
2023/03/04 09:36:03;;;;;;;28.58;7.03;;;;;;;;;;5013555;28;20040;-73
2023/03/04 09:38:29;;;;;;;12.13;5.10;;;;;;;;;;5031615;28;20041;-72
2023/03/04 09:40:56;;;;;;;12.75;5.65;;;;;;;;;;5017125;28;20029;-72
2023/03/04 09:43:28;;;;;;;12.73;5.50;;;;;;;;;;5003385;28;20037;-71
2023/03/04 09:46:01;;;;;;;13.27;6.00;;;;;;;;;;5013099;28;20455;-71
2023/03/04 09:48:28;;;;;;;;;;;;;;;;;;5012325;28;20037;-73
2023/03/04 09:50:58;;;;;;;19.73;6.93;;;;;;;;;;4994363;28;19909;-71
2023/03/04 09:53:43;;;;;;;25.27;6.93;;;;;;;;;;5025202;28;20041;-73
2023/03/04 09:56:11;;;;;;;25.90;6.38;;;;;;;;;;5010346;28;20033;-74
2023/03/04 09:58:57;;;;;;;20.67;6.32;;;;;;;;;;5010527;28;20028;-73
2023/03/04 10:01:48;;;;;;;22.98;6.05;;;;;;;;;;5010324;28;20037;-72
2023/03/04 10:04:59;;;;;;;22.98;6.55;;;;;;;;;;5009147;28;20479;-73
2023/03/04 10:07:32;;;;;;;13.35;5.97;;;;;;;;;;5009818;28;20041;-74
2023/03/04 10:10:15;;;;;;;17.73;6.30;;;;;;;;;;5011231;28;20495;-72
2023/03/04 10:12:45;;;;;;;13.98;6.05;;;;;;;;;;5011617;28;20033;-72
2023/03/04 10:15:18;;;;;;;13.43;5.93;;;;;;;;;;5011776;28;20065;-71
2023/03/04 10:17:50;;;;;;;10.02;5.53;;;;;;;;;;5011341;28;20427;-72
2023/03/04 10:20:22;;;;;;;8.40;5.57;;;;;;;;;;5011469;28;20033;-72
2023/03/04 10:22:50;;;;;;;9.43;5.25;;;;;;;;;;5005753;28;20050;-72
2023/03/04 10:25:24;;;;;;;14.77;5.63;;;;;;;;;;5001256;28;20492;-72
2023/03/04 10:28:01;;;;;;;14.23;6.60;;;;;;;;;;4992874;28;20037;-72
2023/03/04 10:30:59;;;;;;;16.60;6.60;;;;;;;;;;5009086;28;20037;-71
2023/03/04 10:33:36;;;;;;;10.80;5.68;;;;;;;;;;5008195;28;20129;-72
2023/03/04 10:36:17;;;;;;;15.38;6.03;;;;;;;;;;5007462;28;20131;-73
2023/03/04 10:38:44;;;;;;;12.00;4.97;;;;;;;;;;5008293;28;20038;-73
2023/03/04 10:41:19;;;;;;;9.60;4.97;;;;;;;;;;5028277;28;20030;-73
2023/03/04 10:44:08;;;;;;;16.90;6.50;;;;;;;;;;4992024;28;20113;-72
2023/03/04 10:46:38;;;;;;;11.57;6.07;;;;;;;;;;4996097;28;20408;-73
2023/03/04 10:49:04;;;;;;;15.75;6.55;;;;;;;;;;5013437;28;20030;-74
2023/03/04 10:51:30;;;;;;;16.00;5.43;;;;;;;;;;5003251;28;20394;-74
2023/03/04 10:53:59;;;;;;;16.63;5.38;;;;;;;;;;5019729;28;20052;-72
2023/03/04 10:56:32;;;;;;;11.50;5.70;;;;;;;;;;4998629;28;20033;-74
2023/03/04 10:59:16;;;;;;;;;;;;;;;;;;5030490;28;20046;-74
2023/03/04 11:01:42;;;;;;;11.75;5.50;;;;;;;;;;4995696;28;19913;-73
2023/03/04 11:04:17;;;;;;;18.30;6.30;;;;;;;;;;5012629;28;20068;-72
2023/03/04 11:06:43;;;;;;;16.20;6.03;;;;;;;;;;5010932;28;20153;-73
2023/03/04 11:09:22;;;;;;;14.02;5.43;;;;;;;;;;5014039;28;20444;-74
2023/03/04 11:11:49;;;;;;;15.60;6.78;;;;;;;;;;5000081;28;20042;-75
2023/03/04 11:14:37;;;;;;;19.55;6.95;;;;;;;;;;5017801;28;20164;-73
2023/03/04 11:17:18;;;;;;;10.38;5.93;;;;;;;;;;5011886;28;20030;-74
2023/03/04 11:19:48;;;;;;;18.08;6.13;;;;;;;;;;5007595;28;20534;-73
2023/03/04 11:22:20;;;;;;;13.40;6.38;;;;;;;;;;5030357;28;20107;-74
2023/03/04 11:24:55;;;;;;;17.73;7.27;;;;;;;;;;5033842;28;20068;-74
2023/03/04 11:27:32;;;;;;;11.10;5.53;;;;;;;;;;5033935;28;20514;-74
2023/03/04 11:30:14;;;;;;;9.73;5.68;;;;;;;;;;5034454;28;20407;-74
2023/03/04 11:32:44;;;;;;;17.90;6.18;;;;;;;;;;5034990;28;20068;-74
2023/03/04 11:35:25;;;;;;;8.85;5.60;;;;;;;;;;5035171;28;20460;-73
2023/03/04 11:38:29;;;;;;;13.45;5.90;;;;;;;;;;5034032;28;20253;-72
2023/03/04 11:41:03;;;;;;;;;;;;;;;;;;4973879;28;20042;-72
2023/03/04 11:43:34;;;;;;;10.60;6.95;;;;;;;;;;5025806;28;19980;-73
2023/03/04 11:46:20;;;;;;;14.25;5.70;;;;;;;;;;5050009;28;20046;-72
2023/03/04 11:49:22;;;;;;;16.55;6.43;;;;;;;;;;5032571;28;20479;-72
2023/03/04 11:51:59;;;;;;;15.45;6.20;;;;;;;;;;5049061;28;20045;-73
2023/03/04 11:54:34;;;;;;;14.88;5.70;;;;;;;;;;5034125;28;20406;-72
2023/03/04 11:57:25;;;;;;;10.75;5.45;;;;;;;;;;5033570;28;20029;-72
2023/03/04 12:00:11;;;;;;;12.70;5.82;;;;;;;;;;5033266;28;20033;-74
2023/03/04 12:03:14;;;;;;;16.20;7.53;;;;;;;;;;5009362;28;20048;-75
2023/03/04 12:05:50;;;;;;;17.92;6.63;;;;;;;;;;5034045;28;20033;-76
2023/03/04 12:08:34;;;;;;;11.73;6.07;;;;;;;;;;5033760;28;20029;-74
2023/03/04 12:11:09;;;;;;;10.20;5.93;;;;;;;;;;5033999;28;20033;-72
2023/03/04 12:13:41;;;;;;;10.80;5.80;;;;;;;;;;5033935;28;20041;-73
2023/03/04 12:16:17;;;;;;;14.32;7.03;;;;;;;;;;5016503;28;20037;-73
2023/03/04 12:19:07;;;;;;;14.65;6.38;;;;;;;;;;5033485;28;20116;-71
2023/03/04 12:21:54;;;;;;;10.13;5.93;;;;;;;;;;5033247;28;20033;-72
2023/03/04 12:24:32;;;;;;;10.07;4.97;;;;;;;;;;5033126;28;20045;-74
2023/03/04 12:27:03;;;;;;;12.48;6.05;;;;;;;;;;5006419;28;20034;-72
2023/03/04 12:29:51;;;;;;;19.40;6.95;;;;;;;;;;5014624;28;20034;-74
2023/03/04 12:32:37;;;;;;;13.98;5.55;;;;;;;;;;5024847;28;20446;-74
2023/03/04 12:35:11;;;;;;;10.93;6.20;;;;;;;;;;5005416;28;20037;-74
2023/03/04 12:37:46;;;;;;;17.25;7.55;;;;;;;;;;5029944;28;20145;-74
2023/03/04 12:40:33;;;;;;;12.70;5.97;;;;;;;;;;5012014;28;20115;-75
2023/03/04 12:43:11;;;;;;;9.88;5.40;;;;;;;;;;5009290;28;20030;-73
2023/03/04 12:46:13;;;;;;;15.70;5.95;;;;;;;;;;5012048;28;20034;-73
2023/03/04 12:48:50;;;;;;;13.82;5.57;;;;;;;;;;4995311;28;20053;-73
2023/03/04 12:51:26;;;;;;;16.85;5.05;;;;;;;;;;5012404;28;20025;-73
2023/03/04 12:54:04;;;;;;;9.23;4.88;;;;;;;;;;5012561;28;20141;-73
2023/03/04 12:56:39;;;;;;;22.85;6.07;;;;;;;;;;5011708;28;20510;-73
2023/03/04 12:59:13;;;;;;;11.25;5.53;;;;;;;;;;5010614;28;20088;-73
2023/03/04 13:01:45;;;;;;;12.75;6.25;;;;;;;;;;5010959;28;20064;-73
2023/03/04 13:04:25;;;;;;;12.30;5.57;;;;;;;;;;5028601;28;20124;-72
2023/03/04 13:07:07;;;;;;;15.75;5.60;;;;;;;;;;5011897;28;20030;-72
2023/03/04 13:09:37;;;;;;;15.40;5.97;;;;;;;;;;5013376;28;20181;-72
2023/03/04 13:12:22;;;;;;;10.88;4.38;;;;;;;;;;5005409;28;20129;-71
2023/03/04 13:15:06;;;;;;;11.93;4.47;;;;;;;;;;5012854;28;20041;-72
2023/03/04 13:17:53;;;;;;;9.10;4.28;;;;;;;;;;5011334;28;20042;-73
2023/03/04 13:20:18;;;;;;;10.15;4.50;;;;;;;;;;5012350;28;20120;-73
2023/03/04 13:22:50;;;;;;;9.40;4.65;;;;;;;;;;5011233;28;20126;-73
2023/03/04 13:25:44;;;;;;;17.98;6.10;;;;;;;;;;5012416;28;20041;-72
2023/03/04 13:28:12;;;;;;;16.77;5.43;;;;;;;;;;5011317;28;20493;-71
2023/03/04 13:30:38;;;;;;;14.23;5.38;;;;;;;;;;5012516;28;20033;-73
2023/03/04 13:33:09;;;;;;;14.25;5.70;;;;;;;;;;5012510;28;20036;-73
2023/03/04 13:36:03;;;;;;;8.52;4.78;;;;;;;;;;5012261;28;20056;-72
2023/03/04 13:38:35;;;;;;;12.27;5.00;;;;;;;;;;5011974;28;20483;-72
2023/03/04 13:41:07;;;;;;;10.63;5.60;;;;;;;;;;5012402;28;20286;-73
2023/03/04 13:43:53;;;;;;;16.73;4.50;;;;;;;;;;5011274;28;20041;-71
2023/03/04 13:46:19;;;;;;;16.63;5.97;;;;;;;;;;5012472;28;20173;-71
2023/03/04 13:48:50;;;;;;;9.77;5.30;;;;;;;;;;5011887;28;20116;-71
2023/03/04 13:51:23;;;;;;;10.02;5.22;;;;;;;;;;5011940;28;20077;-71
2023/03/04 13:53:54;;;;;;;12.50;5.72;;;;;;;;;;5012224;28;20498;-72
2023/03/04 13:56:30;;;;;;;9.63;5.30;;;;;;;;;;5012270;28;20049;-72
2023/03/04 13:59:15;;;;;;;13.10;6.07;;;;;;;;;;5012144;28;20038;-71
2023/03/04 14:02:01;;;;;;;7.65;3.33;;;;;;;;;;5012243;28;20038;-72
2023/03/04 14:04:35;;;;;;;14.35;5.10;;;;;;;;;;5011450;28;20084;-72
2023/03/04 14:07:17;;;;;;;10.63;3.75;;;;;;;;;;5011857;28;20030;-72
2023/03/04 14:09:53;;;;;;;6.93;3.95;;;;;;;;;;5012109;28;20117;-71
2023/03/04 14:12:20;;;;;;;12.40;5.25;;;;;;;;;;5011630;28;20395;-72
2023/03/04 14:14:52;;;;;;;8.05;4.55;;;;;;;;;;5011461;28;20117;-72
2023/03/04 14:17:21;;;;;;;10.95;4.63;;;;;;;;;;5011230;28;20065;-72
2023/03/04 14:19:48;;;;;;;11.60;4.88;;;;;;;;;;5011936;28;20131;-72
2023/03/04 14:22:27;;;;;;;7.45;4.43;;;;;;;;;;5010765;28;20030;-71
2023/03/04 14:25:16;;;;;;;9.05;4.63;;;;;;;;;;5011915;28;20033;-72
2023/03/04 14:27:43;;;;;;;16.13;6.82;;;;;;;;;;5000839;28;20049;-72
2023/03/04 14:30:22;;;;;;;12.43;6.00;;;;;;;;;;5011498;28;20448;-72
2023/03/04 14:32:48;;;;;;;13.90;6.10;;;;;;;;;;5011891;28;20480;-72
2023/03/04 14:35:30;;;;;;;11.77;5.03;;;;;;;;;;5011202;28;20029;-73
2023/03/04 14:38:02;;;;;;;7.15;4.30;;;;;;;;;;5011545;28;20037;-73
2023/03/04 14:40:39;;;;;;;16.52;5.95;;;;;;;;;;5011730;28;20033;-73
2023/03/04 14:43:11;;;;;;;11.13;5.38;;;;;;;;;;4999334;28;20037;-71